sensor_id;sensor_type;location;lat;lon;timestamp;P1;durP1;ratioP1;P2;durP2;ratioP2
32236;SDS011;18726;44.732;10.550;2023-07-31T00:02:59;5.13;;;4.68;;
32236;SDS011;18726;44.732;10.550;2023-07-31T00:06:02;6.13;;;5.07;;
32236;SDS011;18726;44.732;10.550;2023-07-31T00:09:06;9.98;;;8.98;;
32236;SDS011;18726;44.732;10.550;2023-07-31T00:12:09;13.15;;;8.90;;
32236;SDS011;18726;44.732;10.550;2023-07-31T00:15:13;15.80;;;10.23;;
32236;SDS011;18726;44.732;10.550;2023-07-31T00:18:17;11.45;;;9.80;;
32236;SDS011;18726;44.732;10.550;2023-07-31T00:21:21;8.23;;;6.30;;
32236;SDS011;18726;44.732;10.550;2023-07-31T00:24:24;6.20;;;5.70;;
32236;SDS011;18726;44.732;10.550;2023-07-31T00:27:28;11.80;;;8.88;;
32236;SDS011;18726;44.732;10.550;2023-07-31T00:30:32;8.90;;;8.05;;
32236;SDS011;18726;44.732;10.550;2023-07-31T00:33:37;10.52;;;9.27;;
32236;SDS011;18726;44.732;10.550;2023-07-31T00:36:42;12.15;;;8.88;;
32236;SDS011;18726;44.732;10.550;2023-07-31T00:39:45;10.82;;;9.68;;
32236;SDS011;18726;44.732;10.550;2023-07-31T00:42:48;6.80;;;6.18;;
32236;SDS011;18726;44.732;10.550;2023-07-31T00:45:52;10.07;;;8.30;;
32236;SDS011;18726;44.732;10.550;2023-07-31T00:48:56;6.53;;;5.78;;
32236;SDS011;18726;44.732;10.550;2023-07-31T00:52:01;6.85;;;6.25;;
32236;SDS011;18726;44.732;10.550;2023-07-31T00:55:06;7.10;;;6.50;;
32236;SDS011;18726;44.732;10.550;2023-07-31T00:58:11;7.22;;;6.53;;
32236;SDS011;18726;44.732;10.550;2023-07-31T01:01:15;5.72;;;5.22;;
32236;SDS011;18726;44.732;10.550;2023-07-31T01:04:19;7.20;;;5.60;;
32236;SDS011;18726;44.732;10.550;2023-07-31T01:10:46;5.95;;;5.45;;
32236;SDS011;18726;44.732;10.550;2023-07-31T01:13:55;7.53;;;5.90;;
32236;SDS011;18726;44.732;10.550;2023-07-31T01:17:00;11.57;;;8.75;;
32236;SDS011;18726;44.732;10.550;2023-07-31T01:20:05;7.32;;;6.22;;
32236;SDS011;18726;44.732;10.550;2023-07-31T01:23:31;8.70;;;7.90;;
32236;SDS011;18726;44.732;10.550;2023-07-31T01:27:29;7.85;;;6.63;;
32236;SDS011;18726;44.732;10.550;2023-07-31T01:30:28;7.18;;;6.50;;
32236;SDS011;18726;44.732;10.550;2023-07-31T01:33:39;7.47;;;6.65;;
32236;SDS011;18726;44.732;10.550;2023-07-31T01:36:43;6.95;;;6.35;;
32236;SDS011;18726;44.732;10.550;2023-07-31T01:39:47;7.20;;;6.57;;
32236;SDS011;18726;44.732;10.550;2023-07-31T01:42:50;6.07;;;5.47;;
32236;SDS011;18726;44.732;10.550;2023-07-31T01:45:54;9.30;;;8.45;;
32236;SDS011;18726;44.732;10.550;2023-07-31T01:48:57;11.55;;;10.55;;
32236;SDS011;18726;44.732;10.550;2023-07-31T01:52:01;12.93;;;11.70;;
32236;SDS011;18726;44.732;10.550;2023-07-31T01:55:04;11.75;;;10.32;;
32236;SDS011;18726;44.732;10.550;2023-07-31T01:58:08;8.80;;;7.85;;
32236;SDS011;18726;44.732;10.550;2023-07-31T02:01:12;11.32;;;10.07;;
32236;SDS011;18726;44.732;10.550;2023-07-31T02:04:16;13.60;;;12.20;;
32236;SDS011;18726;44.732;10.550;2023-07-31T02:07:20;14.55;;;13.23;;
32236;SDS011;18726;44.732;10.550;2023-07-31T02:10:23;16.95;;;13.35;;
32236;SDS011;18726;44.732;10.550;2023-07-31T02:13:28;7.88;;;7.18;;
32236;SDS011;18726;44.732;10.550;2023-07-31T02:16:31;12.18;;;9.77;;
32236;SDS011;18726;44.732;10.550;2023-07-31T02:19:35;6.57;;;5.93;;
32236;SDS011;18726;44.732;10.550;2023-07-31T02:22:38;15.07;;;10.10;;
32236;SDS011;18726;44.732;10.550;2023-07-31T02:25:41;11.05;;;9.75;;
32236;SDS011;18726;44.732;10.550;2023-07-31T02:28:46;7.63;;;6.70;;
32236;SDS011;18726;44.732;10.550;2023-07-31T02:31:49;6.15;;;5.50;;
32236;SDS011;18726;44.732;10.550;2023-07-31T02:34:53;6.72;;;5.93;;
32236;SDS011;18726;44.732;10.550;2023-07-31T02:37:57;5.55;;;5.05;;
32236;SDS011;18726;44.732;10.550;2023-07-31T02:41:01;5.85;;;5.20;;
32236;SDS011;18726;44.732;10.550;2023-07-31T02:44:05;5.80;;;5.30;;
32236;SDS011;18726;44.732;10.550;2023-07-31T02:47:08;6.10;;;5.50;;
32236;SDS011;18726;44.732;10.550;2023-07-31T02:50:12;5.75;;;5.07;;
32236;SDS011;18726;44.732;10.550;2023-07-31T02:53:15;8.20;;;5.25;;
32236;SDS011;18726;44.732;10.550;2023-07-31T02:56:19;5.15;;;4.65;;
32236;SDS011;18726;44.732;10.550;2023-07-31T02:59:22;5.28;;;4.88;;
32236;SDS011;18726;44.732;10.550;2023-07-31T03:02:26;5.53;;;4.53;;
32236;SDS011;18726;44.732;10.550;2023-07-31T03:05:30;5.93;;;5.35;;
32236;SDS011;18726;44.732;10.550;2023-07-31T03:08:33;5.60;;;4.63;;
32236;SDS011;18726;44.732;10.550;2023-07-31T03:11:36;5.28;;;4.78;;
32236;SDS011;18726;44.732;10.550;2023-07-31T03:14:40;5.72;;;4.88;;
32236;SDS011;18726;44.732;10.550;2023-07-31T03:17:44;5.38;;;3.97;;
32236;SDS011;18726;44.732;10.550;2023-07-31T03:20:47;5.40;;;4.90;;
32236;SDS011;18726;44.732;10.550;2023-07-31T03:23:51;6.20;;;5.65;;
32236;SDS011;18726;44.732;10.550;2023-07-31T03:26:55;6.93;;;6.22;;
32236;SDS011;18726;44.732;10.550;2023-07-31T03:29:59;6.65;;;6.03;;
32236;SDS011;18726;44.732;10.550;2023-07-31T03:33:04;6.10;;;5.50;;
32236;SDS011;18726;44.732;10.550;2023-07-31T03:36:07;6.00;;;5.47;;
32236;SDS011;18726;44.732;10.550;2023-07-31T03:39:11;5.88;;;5.40;;
32236;SDS011;18726;44.732;10.550;2023-07-31T03:42:14;6.93;;;5.80;;
32236;SDS011;18726;44.732;10.550;2023-07-31T03:45:18;6.97;;;6.28;;
32236;SDS011;18726;44.732;10.550;2023-07-31T03:52:12;7.00;;;6.25;;
32236;SDS011;18726;44.732;10.550;2023-07-31T03:55:15;9.65;;;6.88;;
32236;SDS011;18726;44.732;10.550;2023-07-31T03:58:18;8.60;;;6.70;;
32236;SDS011;18726;44.732;10.550;2023-07-31T04:01:22;8.30;;;7.25;;
32236;SDS011;18726;44.732;10.550;2023-07-31T04:04:26;7.05;;;6.15;;
32236;SDS011;18726;44.732;10.550;2023-07-31T04:07:29;6.15;;;5.63;;
32236;SDS011;18726;44.732;10.550;2023-07-31T04:10:33;7.00;;;6.30;;
32236;SDS011;18726;44.732;10.550;2023-07-31T04:13:36;7.53;;;6.60;;
32236;SDS011;18726;44.732;10.550;2023-07-31T04:16:40;7.15;;;6.50;;
32236;SDS011;18726;44.732;10.550;2023-07-31T04:19:44;6.40;;;5.75;;
32236;SDS011;18726;44.732;10.550;2023-07-31T04:22:47;5.80;;;5.30;;
32236;SDS011;18726;44.732;10.550;2023-07-31T04:25:52;9.35;;;4.97;;
32236;SDS011;18726;44.732;10.550;2023-07-31T04:28:55;5.53;;;5.03;;
32236;SDS011;18726;44.732;10.550;2023-07-31T04:31:58;6.78;;;5.32;;
32236;SDS011;18726;44.732;10.550;2023-07-31T04:35:02;8.73;;;5.80;;
32236;SDS011;18726;44.732;10.550;2023-07-31T04:38:06;5.78;;;5.25;;
32236;SDS011;18726;44.732;10.550;2023-07-31T04:41:10;6.20;;;5.63;;
32236;SDS011;18726;44.732;10.550;2023-07-31T04:44:13;5.50;;;4.50;;
32236;SDS011;18726;44.732;10.550;2023-07-31T04:47:16;8.27;;;6.05;;
32236;SDS011;18726;44.732;10.550;2023-07-31T04:50:20;6.93;;;6.25;;
32236;SDS011;18726;44.732;10.550;2023-07-31T04:53:24;6.95;;;6.25;;
32236;SDS011;18726;44.732;10.550;2023-07-31T04:56:27;9.30;;;6.55;;
32236;SDS011;18726;44.732;10.550;2023-07-31T04:59:31;5.00;;;4.50;;
32236;SDS011;18726;44.732;10.550;2023-07-31T05:02:34;8.45;;;6.50;;
32236;SDS011;18726;44.732;10.550;2023-07-31T05:05:38;6.00;;;5.40;;
32236;SDS011;18726;44.732;10.550;2023-07-31T05:08:41;9.95;;;6.30;;
32236;SDS011;18726;44.732;10.550;2023-07-31T05:11:45;8.98;;;6.40;;
32236;SDS011;18726;44.732;10.550;2023-07-31T05:14:48;8.35;;;5.35;;
32236;SDS011;18726;44.732;10.550;2023-07-31T05:17:52;5.15;;;4.32;;
32236;SDS011;18726;44.732;10.550;2023-07-31T05:20:56;5.13;;;4.50;;
32236;SDS011;18726;44.732;10.550;2023-07-31T05:23:59;4.00;;;3.67;;
32236;SDS011;18726;44.732;10.550;2023-07-31T05:27:03;4.93;;;3.58;;
32236;SDS011;18726;44.732;10.550;2023-07-31T05:30:08;7.07;;;4.50;;
32236;SDS011;18726;44.732;10.550;2023-07-31T05:33:11;8.57;;;4.72;;
32236;SDS011;18726;44.732;10.550;2023-07-31T05:36:16;7.55;;;5.43;;
32236;SDS011;18726;44.732;10.550;2023-07-31T05:39:20;6.35;;;5.22;;
32236;SDS011;18726;44.732;10.550;2023-07-31T05:42:24;6.13;;;5.45;;
32236;SDS011;18726;44.732;10.550;2023-07-31T05:45:27;5.53;;;5.03;;
32236;SDS011;18726;44.732;10.550;2023-07-31T05:48:31;9.52;;;5.32;;
32236;SDS011;18726;44.732;10.550;2023-07-31T05:51:34;11.95;;;6.78;;
32236;SDS011;18726;44.732;10.550;2023-07-31T05:54:38;10.20;;;7.35;;
32236;SDS011;18726;44.732;10.550;2023-07-31T05:57:42;9.82;;;7.47;;
32236;SDS011;18726;44.732;10.550;2023-07-31T06:00:45;12.02;;;7.35;;
32236;SDS011;18726;44.732;10.550;2023-07-31T06:03:49;12.65;;;8.05;;
32236;SDS011;18726;44.732;10.550;2023-07-31T06:06:52;8.93;;;7.38;;
32236;SDS011;18726;44.732;10.550;2023-07-31T06:09:56;10.60;;;7.55;;
32236;SDS011;18726;44.732;10.550;2023-07-31T06:13:00;8.27;;;7.35;;
32236;SDS011;18726;44.732;10.550;2023-07-31T06:16:04;9.40;;;8.43;;
32236;SDS011;18726;44.732;10.550;2023-07-31T06:19:09;10.13;;;6.93;;
32236;SDS011;18726;44.732;10.550;2023-07-31T06:22:13;17.50;;;5.88;;
32236;SDS011;18726;44.732;10.550;2023-07-31T06:25:16;10.48;;;7.93;;
32236;SDS011;18726;44.732;10.550;2023-07-31T06:28:20;10.00;;;7.25;;
32236;SDS011;18726;44.732;10.550;2023-07-31T06:31:24;8.90;;;7.78;;
32236;SDS011;18726;44.732;10.550;2023-07-31T06:34:28;7.55;;;6.47;;
32236;SDS011;18726;44.732;10.550;2023-07-31T06:37:32;8.00;;;6.63;;
32236;SDS011;18726;44.732;10.550;2023-07-31T06:40:35;12.27;;;7.90;;
32236;SDS011;18726;44.732;10.550;2023-07-31T06:43:39;11.60;;;7.20;;
32236;SDS011;18726;44.732;10.550;2023-07-31T06:46:42;9.80;;;7.80;;
32236;SDS011;18726;44.732;10.550;2023-07-31T06:49:46;11.40;;;7.38;;
32236;SDS011;18726;44.732;10.550;2023-07-31T06:52:49;7.30;;;6.60;;
32236;SDS011;18726;44.732;10.550;2023-07-31T06:55:53;11.77;;;7.22;;
32236;SDS011;18726;44.732;10.550;2023-07-31T06:58:56;9.68;;;6.63;;
32236;SDS011;18726;44.732;10.550;2023-07-31T07:02:00;9.10;;;6.53;;
32236;SDS011;18726;44.732;10.550;2023-07-31T07:05:04;7.60;;;6.20;;
32236;SDS011;18726;44.732;10.550;2023-07-31T07:08:08;10.23;;;8.02;;
32236;SDS011;18726;44.732;10.550;2023-07-31T07:11:11;8.57;;;7.38;;
32236;SDS011;18726;44.732;10.550;2023-07-31T07:14:15;8.32;;;6.93;;
32236;SDS011;18726;44.732;10.550;2023-07-31T07:17:19;9.77;;;7.20;;
32236;SDS011;18726;44.732;10.550;2023-07-31T07:20:23;8.00;;;6.05;;
32236;SDS011;18726;44.732;10.550;2023-07-31T07:23:27;13.40;;;6.70;;
32236;SDS011;18726;44.732;10.550;2023-07-31T07:26:31;8.27;;;6.00;;
32236;SDS011;18726;44.732;10.550;2023-07-31T07:29:35;7.55;;;6.60;;
32236;SDS011;18726;44.732;10.550;2023-07-31T07:32:39;10.65;;;6.35;;
32236;SDS011;18726;44.732;10.550;2023-07-31T07:35:43;7.50;;;6.00;;
32236;SDS011;18726;44.732;10.550;2023-07-31T07:38:46;6.53;;;5.63;;
32236;SDS011;18726;44.732;10.550;2023-07-31T07:41:50;8.02;;;6.07;;
32236;SDS011;18726;44.732;10.550;2023-07-31T07:44:54;8.05;;;5.57;;
32236;SDS011;18726;44.732;10.550;2023-07-31T07:47:57;7.60;;;6.13;;
32236;SDS011;18726;44.732;10.550;2023-07-31T07:51:02;8.07;;;6.43;;
32236;SDS011;18726;44.732;10.550;2023-07-31T07:54:06;5.35;;;4.60;;
32236;SDS011;18726;44.732;10.550;2023-07-31T07:57:10;6.90;;;4.40;;
32236;SDS011;18726;44.732;10.550;2023-07-31T08:00:14;8.77;;;5.20;;
32236;SDS011;18726;44.732;10.550;2023-07-31T08:03:17;5.72;;;4.50;;
32236;SDS011;18726;44.732;10.550;2023-07-31T08:06:21;5.35;;;4.82;;
32236;SDS011;18726;44.732;10.550;2023-07-31T08:09:26;7.43;;;5.40;;
32236;SDS011;18726;44.732;10.550;2023-07-31T08:12:30;5.53;;;4.97;;
32236;SDS011;18726;44.732;10.550;2023-07-31T08:15:33;7.97;;;5.85;;
32236;SDS011;18726;44.732;10.550;2023-07-31T08:18:37;5.45;;;4.70;;
32236;SDS011;18726;44.732;10.550;2023-07-31T08:21:41;6.18;;;4.38;;
32236;SDS011;18726;44.732;10.550;2023-07-31T08:24:45;5.60;;;3.72;;
32236;SDS011;18726;44.732;10.550;2023-07-31T08:27:48;4.28;;;3.78;;
32236;SDS011;18726;44.732;10.550;2023-07-31T08:30:52;5.25;;;3.45;;
32236;SDS011;18726;44.732;10.550;2023-07-31T08:33:55;4.35;;;3.95;;
32236;SDS011;18726;44.732;10.550;2023-07-31T08:36:59;4.72;;;3.60;;
32236;SDS011;18726;44.732;10.550;2023-07-31T08:40:03;5.93;;;4.10;;
32236;SDS011;18726;44.732;10.550;2023-07-31T08:43:08;7.32;;;4.10;;
32236;SDS011;18726;44.732;10.550;2023-07-31T08:46:12;9.57;;;4.72;;
32236;SDS011;18726;44.732;10.550;2023-07-31T08:49:17;6.60;;;3.88;;
32236;SDS011;18726;44.732;10.550;2023-07-31T08:52:23;6.97;;;2.88;;
32236;SDS011;18726;44.732;10.550;2023-07-31T08:55:27;5.47;;;3.88;;
32236;SDS011;18726;44.732;10.550;2023-07-31T08:58:32;4.40;;;3.63;;
32236;SDS011;18726;44.732;10.550;2023-07-31T09:01:38;3.95;;;3.50;;
32236;SDS011;18726;44.732;10.550;2023-07-31T09:04:46;4.90;;;3.97;;
32236;SDS011;18726;44.732;10.550;2023-07-31T09:07:50;3.45;;;3.05;;
32236;SDS011;18726;44.732;10.550;2023-07-31T09:10:58;6.47;;;3.83;;
32236;SDS011;18726;44.732;10.550;2023-07-31T09:14:03;5.75;;;4.10;;
32236;SDS011;18726;44.732;10.550;2023-07-31T09:17:11;5.15;;;4.65;;
32236;SDS011;18726;44.732;10.550;2023-07-31T09:20:19;5.43;;;3.95;;
32236;SDS011;18726;44.732;10.550;2023-07-31T09:23:24;4.03;;;3.60;;
32236;SDS011;18726;44.732;10.550;2023-07-31T09:26:37;5.15;;;4.60;;
32236;SDS011;18726;44.732;10.550;2023-07-31T09:29:40;6.28;;;3.95;;
32236;SDS011;18726;44.732;10.550;2023-07-31T09:32:45;3.83;;;3.53;;
32236;SDS011;18726;44.732;10.550;2023-07-31T09:35:50;7.50;;;4.72;;
32236;SDS011;18726;44.732;10.550;2023-07-31T09:38:53;6.53;;;5.60;;
32236;SDS011;18726;44.732;10.550;2023-07-31T09:41:57;7.35;;;5.18;;
32236;SDS011;18726;44.732;10.550;2023-07-31T09:45:08;6.05;;;4.90;;
32236;SDS011;18726;44.732;10.550;2023-07-31T09:48:13;4.80;;;4.32;;
32236;SDS011;18726;44.732;10.550;2023-07-31T09:51:26;6.57;;;4.57;;
32236;SDS011;18726;44.732;10.550;2023-07-31T09:54:30;5.75;;;5.03;;
32236;SDS011;18726;44.732;10.550;2023-07-31T09:57:33;9.45;;;5.20;;
32236;SDS011;18726;44.732;10.550;2023-07-31T10:00:38;5.47;;;4.68;;
32236;SDS011;18726;44.732;10.550;2023-07-31T10:03:42;5.75;;;5.22;;
32236;SDS011;18726;44.732;10.550;2023-07-31T10:06:49;7.22;;;5.60;;
32236;SDS011;18726;44.732;10.550;2023-07-31T10:09:54;7.57;;;5.78;;
32236;SDS011;18726;44.732;10.550;2023-07-31T10:12:59;5.20;;;4.70;;
32236;SDS011;18726;44.732;10.550;2023-07-31T10:16:03;6.50;;;5.30;;
32236;SDS011;18726;44.732;10.550;2023-07-31T10:19:07;7.13;;;5.53;;
32236;SDS011;18726;44.732;10.550;2023-07-31T10:22:12;7.38;;;5.65;;
32236;SDS011;18726;44.732;10.550;2023-07-31T10:25:17;6.28;;;5.78;;
32236;SDS011;18726;44.732;10.550;2023-07-31T10:28:22;7.00;;;5.45;;
32236;SDS011;18726;44.732;10.550;2023-07-31T10:31:28;4.95;;;3.80;;
32236;SDS011;18726;44.732;10.550;2023-07-31T10:34:33;6.68;;;4.80;;
32236;SDS011;18726;44.732;10.550;2023-07-31T10:37:42;6.80;;;4.88;;
32236;SDS011;18726;44.732;10.550;2023-07-31T10:40:47;5.65;;;4.03;;
32236;SDS011;18726;44.732;10.550;2023-07-31T10:44:03;4.97;;;4.50;;
32236;SDS011;18726;44.732;10.550;2023-07-31T10:47:10;7.05;;;4.55;;
32236;SDS011;18726;44.732;10.550;2023-07-31T10:50:22;5.93;;;4.00;;
32236;SDS011;18726;44.732;10.550;2023-07-31T10:53:30;5.07;;;4.65;;
32236;SDS011;18726;44.732;10.550;2023-07-31T10:56:39;4.45;;;3.88;;
32236;SDS011;18726;44.732;10.550;2023-07-31T10:59:43;4.85;;;4.13;;
32236;SDS011;18726;44.732;10.550;2023-07-31T11:03:06;5.57;;;4.05;;
32236;SDS011;18726;44.732;10.550;2023-07-31T11:06:14;5.28;;;4.28;;
32236;SDS011;18726;44.732;10.550;2023-07-31T11:09:19;6.03;;;4.03;;
32236;SDS011;18726;44.732;10.550;2023-07-31T11:12:22;6.72;;;4.68;;
32236;SDS011;18726;44.732;10.550;2023-07-31T11:15:27;9.98;;;5.22;;
32236;SDS011;18726;44.732;10.550;2023-07-31T11:18:31;5.22;;;4.63;;
32236;SDS011;18726;44.732;10.550;2023-07-31T11:21:34;5.47;;;4.50;;
32236;SDS011;18726;44.732;10.550;2023-07-31T11:24:39;5.30;;;4.22;;
32236;SDS011;18726;44.732;10.550;2023-07-31T11:27:43;9.48;;;5.15;;
32236;SDS011;18726;44.732;10.550;2023-07-31T11:30:46;4.65;;;4.10;;
32236;SDS011;18726;44.732;10.550;2023-07-31T11:33:51;7.63;;;4.47;;
32236;SDS011;18726;44.732;10.550;2023-07-31T11:37:07;6.00;;;4.43;;
32236;SDS011;18726;44.732;10.550;2023-07-31T11:40:11;7.13;;;5.00;;
32236;SDS011;18726;44.732;10.550;2023-07-31T11:43:14;7.20;;;4.78;;
32236;SDS011;18726;44.732;10.550;2023-07-31T11:46:20;8.50;;;4.07;;
32236;SDS011;18726;44.732;10.550;2023-07-31T11:49:24;6.03;;;4.25;;
32236;SDS011;18726;44.732;10.550;2023-07-31T11:52:29;6.80;;;3.90;;
32236;SDS011;18726;44.732;10.550;2023-07-31T11:55:37;5.20;;;4.70;;
32236;SDS011;18726;44.732;10.550;2023-07-31T11:58:40;10.05;;;4.50;;
32236;SDS011;18726;44.732;10.550;2023-07-31T12:01:49;6.18;;;4.40;;
32236;SDS011;18726;44.732;10.550;2023-07-31T12:04:56;5.43;;;4.15;;
32236;SDS011;18726;44.732;10.550;2023-07-31T12:08:00;8.30;;;4.43;;
32236;SDS011;18726;44.732;10.550;2023-07-31T12:11:04;6.38;;;4.25;;
32236;SDS011;18726;44.732;10.550;2023-07-31T12:14:19;6.50;;;4.00;;
32236;SDS011;18726;44.732;10.550;2023-07-31T12:17:24;7.38;;;4.13;;
32236;SDS011;18726;44.732;10.550;2023-07-31T12:20:29;6.30;;;4.50;;
32236;SDS011;18726;44.732;10.550;2023-07-31T12:23:34;4.32;;;3.85;;
32236;SDS011;18726;44.732;10.550;2023-07-31T12:26:39;6.85;;;4.55;;
32236;SDS011;18726;44.732;10.550;2023-07-31T12:29:42;6.25;;;4.05;;
32236;SDS011;18726;44.732;10.550;2023-07-31T12:32:48;6.72;;;4.28;;
32236;SDS011;18726;44.732;10.550;2023-07-31T12:35:52;8.48;;;4.50;;
32236;SDS011;18726;44.732;10.550;2023-07-31T12:38:56;4.05;;;3.65;;
32236;SDS011;18726;44.732;10.550;2023-07-31T12:42:02;5.78;;;4.40;;
32236;SDS011;18726;44.732;10.550;2023-07-31T12:45:05;7.18;;;4.03;;
32236;SDS011;18726;44.732;10.550;2023-07-31T12:48:09;4.82;;;4.43;;
32236;SDS011;18726;44.732;10.550;2023-07-31T12:51:13;5.80;;;4.43;;
32236;SDS011;18726;44.732;10.550;2023-07-31T12:54:17;9.65;;;4.93;;
32236;SDS011;18726;44.732;10.550;2023-07-31T12:57:20;4.75;;;4.30;;
32236;SDS011;18726;44.732;10.550;2023-07-31T13:00:24;7.03;;;4.68;;
32236;SDS011;18726;44.732;10.550;2023-07-31T13:03:29;5.63;;;4.68;;
32236;SDS011;18726;44.732;10.550;2023-07-31T13:06:32;4.95;;;4.45;;
32236;SDS011;18726;44.732;10.550;2023-07-31T13:09:36;4.30;;;3.90;;
32236;SDS011;18726;44.732;10.550;2023-07-31T13:12:40;6.97;;;4.40;;
32236;SDS011;18726;44.732;10.550;2023-07-31T13:15:44;4.88;;;4.13;;
32236;SDS011;18726;44.732;10.550;2023-07-31T13:18:49;4.80;;;4.13;;
32236;SDS011;18726;44.732;10.550;2023-07-31T13:21:55;8.88;;;4.53;;
32236;SDS011;18726;44.732;10.550;2023-07-31T13:24:58;4.85;;;4.35;;
32236;SDS011;18726;44.732;10.550;2023-07-31T13:28:02;6.03;;;4.05;;
32236;SDS011;18726;44.732;10.550;2023-07-31T13:31:06;6.75;;;4.28;;
32236;SDS011;18726;44.732;10.550;2023-07-31T13:34:09;4.20;;;3.78;;
32236;SDS011;18726;44.732;10.550;2023-07-31T13:37:13;4.93;;;4.25;;
32236;SDS011;18726;44.732;10.550;2023-07-31T13:40:17;5.05;;;4.55;;
32236;SDS011;18726;44.732;10.550;2023-07-31T13:43:21;6.40;;;4.22;;
32236;SDS011;18726;44.732;10.550;2023-07-31T13:46:24;5.65;;;4.30;;
32236;SDS011;18726;44.732;10.550;2023-07-31T13:49:29;5.90;;;5.03;;
32236;SDS011;18726;44.732;10.550;2023-07-31T13:52:33;5.00;;;4.45;;
32236;SDS011;18726;44.732;10.550;2023-07-31T13:55:37;11.48;;;4.60;;
32236;SDS011;18726;44.732;10.550;2023-07-31T13:58:41;5.53;;;4.30;;
32236;SDS011;18726;44.732;10.550;2023-07-31T14:01:45;6.57;;;4.63;;
32236;SDS011;18726;44.732;10.550;2023-07-31T14:04:49;7.90;;;4.25;;
32236;SDS011;18726;44.732;10.550;2023-07-31T14:07:53;6.00;;;4.85;;
32236;SDS011;18726;44.732;10.550;2023-07-31T14:10:57;5.50;;;4.68;;
32236;SDS011;18726;44.732;10.550;2023-07-31T14:14:01;5.15;;;4.65;;
32236;SDS011;18726;44.732;10.550;2023-07-31T14:17:06;9.75;;;4.72;;
32236;SDS011;18726;44.732;10.550;2023-07-31T14:20:09;5.32;;;4.00;;
32236;SDS011;18726;44.732;10.550;2023-07-31T14:23:13;5.32;;;4.60;;
32236;SDS011;18726;44.732;10.550;2023-07-31T14:26:18;5.18;;;4.68;;
32236;SDS011;18726;44.732;10.550;2023-07-31T14:29:22;4.95;;;4.45;;
32236;SDS011;18726;44.732;10.550;2023-07-31T14:32:27;4.28;;;3.90;;
32236;SDS011;18726;44.732;10.550;2023-07-31T14:35:31;5.50;;;4.93;;
32236;SDS011;18726;44.732;10.550;2023-07-31T14:38:34;6.43;;;4.53;;
32236;SDS011;18726;44.732;10.550;2023-07-31T14:41:37;5.25;;;4.85;;
32236;SDS011;18726;44.732;10.550;2023-07-31T14:44:41;6.20;;;4.70;;
32236;SDS011;18726;44.732;10.550;2023-07-31T14:47:45;6.20;;;4.90;;
32236;SDS011;18726;44.732;10.550;2023-07-31T14:50:48;4.53;;;3.85;;
32236;SDS011;18726;44.732;10.550;2023-07-31T14:53:52;4.20;;;3.80;;
32236;SDS011;18726;44.732;10.550;2023-07-31T14:56:55;4.72;;;4.20;;
32236;SDS011;18726;44.732;10.550;2023-07-31T14:59:59;5.63;;;4.90;;
32236;SDS011;18726;44.732;10.550;2023-07-31T15:03:03;6.10;;;4.25;;
32236;SDS011;18726;44.732;10.550;2023-07-31T15:06:06;5.18;;;4.72;;
32236;SDS011;18726;44.732;10.550;2023-07-31T15:09:11;4.50;;;4.10;;
32236;SDS011;18726;44.732;10.550;2023-07-31T15:12:14;4.97;;;4.47;;
32236;SDS011;18726;44.732;10.550;2023-07-31T15:15:19;5.75;;;4.13;;
32236;SDS011;18726;44.732;10.550;2023-07-31T15:18:22;5.15;;;4.05;;
32236;SDS011;18726;44.732;10.550;2023-07-31T15:21:26;5.05;;;4.10;;
32236;SDS011;18726;44.732;10.550;2023-07-31T15:24:30;5.82;;;4.45;;
32236;SDS011;18726;44.732;10.550;2023-07-31T15:27:34;5.68;;;5.10;;
32236;SDS011;18726;44.732;10.550;2023-07-31T15:30:37;5.28;;;4.45;;
32236;SDS011;18726;44.732;10.550;2023-07-31T15:33:41;6.93;;;4.00;;
32236;SDS011;18726;44.732;10.550;2023-07-31T15:36:45;4.18;;;3.78;;
32236;SDS011;18726;44.732;10.550;2023-07-31T15:39:48;4.78;;;3.95;;
32236;SDS011;18726;44.732;10.550;2023-07-31T15:42:52;4.20;;;3.80;;
32236;SDS011;18726;44.732;10.550;2023-07-31T15:45:56;4.78;;;3.63;;
32236;SDS011;18726;44.732;10.550;2023-07-31T15:48:59;5.72;;;4.00;;
32236;SDS011;18726;44.732;10.550;2023-07-31T15:52:03;10.57;;;4.22;;
32236;SDS011;18726;44.732;10.550;2023-07-31T15:55:07;4.97;;;4.43;;
32236;SDS011;18726;44.732;10.550;2023-07-31T15:58:11;5.53;;;4.07;;
32236;SDS011;18726;44.732;10.550;2023-07-31T16:01:15;6.10;;;3.55;;
32236;SDS011;18726;44.732;10.550;2023-07-31T16:04:19;6.97;;;4.03;;
32236;SDS011;18726;44.732;10.550;2023-07-31T16:07:23;5.45;;;2.80;;
32236;SDS011;18726;44.732;10.550;2023-07-31T16:10:26;6.65;;;3.28;;
32236;SDS011;18726;44.732;10.550;2023-07-31T16:13:30;8.75;;;3.88;;
32236;SDS011;18726;44.732;10.550;2023-07-31T16:16:34;5.70;;;3.63;;
32236;SDS011;18726;44.732;10.550;2023-07-31T16:19:37;4.30;;;3.40;;
32236;SDS011;18726;44.732;10.550;2023-07-31T16:22:42;5.10;;;3.33;;
32236;SDS011;18726;44.732;10.550;2023-07-31T16:25:45;8.63;;;4.10;;
32236;SDS011;18726;44.732;10.550;2023-07-31T16:28:49;5.38;;;3.47;;
32236;SDS011;18726;44.732;10.550;2023-07-31T16:31:53;4.38;;;3.70;;
32236;SDS011;18726;44.732;10.550;2023-07-31T16:34:57;3.17;;;2.72;;
32236;SDS011;18726;44.732;10.550;2023-07-31T16:38:01;6.55;;;3.15;;
32236;SDS011;18726;44.732;10.550;2023-07-31T16:41:05;3.40;;;3.10;;
32236;SDS011;18726;44.732;10.550;2023-07-31T16:44:09;3.70;;;3.28;;
32236;SDS011;18726;44.732;10.550;2023-07-31T16:47:13;7.70;;;3.13;;
32236;SDS011;18726;44.732;10.550;2023-07-31T16:50:17;3.55;;;3.25;;
32236;SDS011;18726;44.732;10.550;2023-07-31T16:53:20;4.25;;;3.17;;
32236;SDS011;18726;44.732;10.550;2023-07-31T16:56:24;5.28;;;3.08;;
32236;SDS011;18726;44.732;10.550;2023-07-31T16:59:28;6.93;;;3.22;;
32236;SDS011;18726;44.732;10.550;2023-07-31T17:02:32;9.65;;;4.00;;
32236;SDS011;18726;44.732;10.550;2023-07-31T17:05:35;4.93;;;3.38;;
32236;SDS011;18726;44.732;10.550;2023-07-31T17:08:39;5.90;;;5.13;;
32236;SDS011;18726;44.732;10.550;2023-07-31T17:11:42;9.63;;;5.38;;
32236;SDS011;18726;44.732;10.550;2023-07-31T17:14:46;7.18;;;5.82;;
32236;SDS011;18726;44.732;10.550;2023-07-31T17:17:51;6.32;;;5.38;;
32236;SDS011;18726;44.732;10.550;2023-07-31T17:20:56;5.80;;;5.10;;
32236;SDS011;18726;44.732;10.550;2023-07-31T17:24:00;4.85;;;4.35;;
32236;SDS011;18726;44.732;10.550;2023-07-31T17:27:05;5.20;;;4.43;;
32236;SDS011;18726;44.732;10.550;2023-07-31T17:30:08;8.20;;;4.63;;
32236;SDS011;18726;44.732;10.550;2023-07-31T17:33:12;6.13;;;4.97;;
32236;SDS011;18726;44.732;10.550;2023-07-31T17:36:16;5.82;;;5.20;;
32236;SDS011;18726;44.732;10.550;2023-07-31T17:39:19;9.40;;;4.85;;
32236;SDS011;18726;44.732;10.550;2023-07-31T17:42:22;6.40;;;4.55;;
32236;SDS011;18726;44.732;10.550;2023-07-31T17:45:26;5.25;;;4.72;;
32236;SDS011;18726;44.732;10.550;2023-07-31T17:48:29;9.07;;;4.65;;
32236;SDS011;18726;44.732;10.550;2023-07-31T17:51:33;7.15;;;5.10;;
32236;SDS011;18726;44.732;10.550;2023-07-31T17:54:37;5.95;;;4.80;;
32236;SDS011;18726;44.732;10.550;2023-07-31T17:57:41;6.13;;;5.00;;
32236;SDS011;18726;44.732;10.550;2023-07-31T18:00:44;5.00;;;4.50;;
32236;SDS011;18726;44.732;10.550;2023-07-31T18:03:48;5.18;;;4.65;;
32236;SDS011;18726;44.732;10.550;2023-07-31T18:06:52;5.78;;;5.20;;
32236;SDS011;18726;44.732;10.550;2023-07-31T18:09:55;5.40;;;4.63;;
32236;SDS011;18726;44.732;10.550;2023-07-31T18:12:59;5.45;;;4.68;;
32236;SDS011;18726;44.732;10.550;2023-07-31T18:16:02;5.32;;;4.32;;
32236;SDS011;18726;44.732;10.550;2023-07-31T18:19:06;6.60;;;4.70;;
32236;SDS011;18726;44.732;10.550;2023-07-31T18:22:09;8.50;;;5.18;;